createdAt,value
2018-03-24T00:01:00.474Z,6.02
2018-03-24T00:03:26.605Z,6.03
2018-03-24T00:05:52.862Z,5.99
2018-03-24T00:08:18.885Z,5.99
2018-03-24T00:10:45.122Z,6.00
2018-03-24T00:13:11.172Z,5.95
2018-03-24T00:15:37.278Z,5.94
2018-03-24T00:18:03.310Z,5.94
2018-03-24T00:20:29.361Z,5.94
2018-03-24T00:22:55.429Z,5.92
2018-03-24T00:25:21.516Z,5.93
2018-03-24T00:27:47.643Z,5.91
2018-03-24T00:30:13.671Z,5.93
2018-03-24T00:32:39.879Z,5.91
2018-03-24T00:35:05.980Z,5.89
2018-03-24T00:37:32.044Z,5.86
2018-03-24T00:39:58.240Z,5.89
2018-03-24T00:42:24.305Z,5.87
2018-03-24T00:44:50.326Z,5.87
2018-03-24T00:50:10.039Z,5.80
2018-03-24T00:52:36.076Z,5.79
2018-03-24T00:55:02.168Z,5.80
2018-03-24T00:57:28.253Z,5.80
2018-03-24T00:59:54.354Z,5.79
2018-03-24T01:02:20.587Z,5.79
2018-03-24T01:04:46.692Z,5.77
2018-03-24T01:07:12.729Z,5.75
2018-03-24T01:09:38.959Z,5.73
2018-03-24T01:12:05.042Z,5.72
2018-03-24T01:14:31.097Z,5.70
2018-03-24T01:16:57.181Z,5.72
2018-03-24T01:19:23.215Z,5.68
2018-03-24T01:21:49.263Z,5.66
2018-03-24T01:24:15.376Z,5.69
2018-03-24T01:26:41.453Z,5.66
2018-03-24T01:29:07.513Z,5.69
2018-03-24T01:31:33.545Z,5.68
2018-03-24T01:33:59.610Z,5.66
2018-03-24T01:36:25.641Z,5.61
2018-03-24T01:38:51.718Z,5.57
2018-03-24T01:41:18.090Z,5.58
2018-03-24T01:43:44.114Z,5.58
2018-03-24T01:46:10.243Z,5.56
2018-03-24T01:48:36.302Z,5.53
2018-03-24T01:51:02.365Z,5.51
2018-03-24T01:53:40.851Z,5.48
2018-03-24T01:56:06.931Z,5.46
2018-03-24T01:58:33.105Z,5.48
2018-03-24T02:00:59.170Z,5.46
2018-03-24T02:03:25.239Z,5.48
2018-03-24T02:05:51.298Z,5.44
2018-03-24T02:08:17.615Z,5.44
2018-03-24T02:10:43.714Z,5.44
2018-03-24T02:13:09.786Z,5.46
2018-03-24T02:15:35.915Z,5.45
2018-03-24T02:18:16.867Z,5.39
2018-03-24T02:20:42.920Z,5.40
2018-03-24T02:23:08.964Z,5.43
2018-03-24T02:25:35.020Z,5.41
2018-03-24T02:28:01.055Z,5.39
2018-03-24T02:30:27.095Z,5.39
2018-03-24T02:32:53.167Z,5.38
2018-03-24T02:35:19.237Z,5.40
2018-03-24T02:37:45.251Z,5.38
2018-03-24T02:40:11.356Z,5.38
2018-03-24T02:42:37.431Z,5.37
2018-03-24T02:45:03.543Z,5.40
2018-03-24T02:47:29.571Z,5.43
2018-03-24T02:49:55.604Z,5.44
2018-03-24T02:52:21.684Z,5.41
2018-03-24T02:54:47.722Z,5.41
2018-03-24T02:57:14.048Z,5.41
2018-03-24T02:59:40.136Z,5.35
2018-03-24T03:02:06.211Z,5.35
2018-03-24T03:04:32.238Z,5.33
2018-03-24T03:06:58.294Z,5.33
2018-03-24T03:09:24.376Z,5.33
2018-03-24T03:11:50.440Z,5.38
2018-03-24T03:14:16.548Z,5.35
2018-03-24T03:16:42.813Z,5.38
2018-03-24T03:19:08.855Z,5.36
2018-03-24T03:21:47.267Z,5.35
2018-03-24T03:24:13.342Z,5.38
2018-03-24T03:26:39.454Z,5.37
2018-03-24T03:29:05.462Z,5.39
2018-03-24T03:31:31.515Z,5.37
2018-03-24T03:33:57.662Z,5.36
2018-03-24T03:36:23.729Z,5.33
2018-03-24T03:38:49.896Z,5.35
2018-03-24T03:41:16.174Z,5.35
2018-03-24T03:43:42.257Z,5.33
2018-03-24T03:46:08.593Z,5.27
2018-03-24T03:48:34.671Z,5.29
2018-03-24T03:51:00.749Z,5.29
2018-03-24T03:53:26.842Z,5.25
2018-03-24T03:55:52.900Z,5.19
2018-03-24T03:58:18.963Z,5.22
2018-03-24T04:00:45.024Z,5.23
2018-03-24T04:03:11.095Z,5.21
2018-03-24T04:05:37.152Z,5.23
2018-03-24T04:08:03.206Z,5.27
2018-03-24T04:10:29.328Z,5.22
2018-03-24T04:12:55.369Z,5.22
2018-03-24T04:15:21.492Z,5.22
2018-03-24T04:17:47.528Z,5.23
2018-03-24T04:20:13.626Z,5.21
2018-03-24T04:22:39.693Z,5.21
2018-03-24T04:25:05.740Z,5.19
2018-03-24T04:27:32.079Z,5.20
2018-03-24T04:29:58.152Z,5.15
2018-03-24T04:32:24.209Z,5.21
2018-03-24T04:34:50.277Z,5.22
2018-03-24T04:37:16.334Z,5.19
2018-03-24T04:39:42.383Z,5.16
2018-03-24T04:42:08.444Z,5.19
2018-03-24T04:44:34.855Z,5.16
2018-03-24T04:47:00.880Z,5.15
2018-03-24T04:49:26.917Z,5.14
2018-03-24T04:51:53.222Z,5.12
2018-03-24T04:54:19.289Z,5.12
2018-03-24T04:56:45.388Z,5.10
2018-03-24T04:59:11.455Z,5.08
2018-03-24T05:01:37.517Z,5.12
2018-03-24T05:04:03.572Z,5.12
2018-03-24T05:06:29.603Z,5.11
2018-03-24T05:08:55.652Z,5.12
2018-03-24T05:11:21.744Z,5.14
2018-03-24T05:13:47.773Z,5.16
2018-03-24T05:16:14.027Z,5.14
2018-03-24T05:18:40.098Z,5.14
2018-03-24T05:21:06.201Z,5.10
2018-03-24T05:23:32.237Z,5.07
2018-03-24T05:25:58.252Z,5.07
2018-03-24T05:28:24.298Z,5.06
2018-03-24T05:30:50.353Z,5.08
2018-03-24T05:33:16.421Z,5.10
2018-03-24T05:35:42.491Z,5.10
2018-03-24T05:38:08.614Z,5.08
2018-03-24T05:40:34.683Z,5.11
2018-03-24T05:43:00.757Z,5.13
2018-03-24T05:45:26.812Z,5.17
2018-03-24T05:47:52.837Z,5.15
2018-03-24T05:50:19.021Z,5.16
2018-03-24T05:52:45.123Z,5.13
2018-03-24T05:55:11.143Z,5.20
2018-03-24T05:57:37.434Z,5.13
2018-03-24T06:00:03.502Z,5.17
2018-03-24T06:02:29.558Z,5.17
2018-03-24T06:04:55.598Z,5.16
2018-03-24T06:07:21.859Z,5.15
2018-03-24T06:09:47.942Z,5.18
2018-03-24T06:12:14.037Z,5.22
2018-03-24T06:14:40.069Z,5.28
2018-03-24T06:17:06.160Z,5.29
2018-03-24T06:19:32.262Z,5.31
2018-03-24T06:21:58.274Z,5.30
2018-03-24T06:24:24.425Z,5.34
2018-03-24T06:26:50.464Z,5.34
2018-03-24T06:29:16.529Z,5.37
2018-03-24T06:31:47.697Z,5.38
2018-03-24T06:34:13.901Z,5.38
2018-03-24T06:39:41.587Z,5.39
2018-03-24T06:42:07.659Z,5.42
2018-03-24T06:44:33.689Z,5.47
2018-03-24T06:46:59.759Z,5.48
2018-03-24T06:49:25.817Z,5.49
2018-03-24T06:51:51.881Z,5.52
2018-03-24T06:54:17.951Z,5.63
2018-03-24T06:56:44.035Z,5.65
2018-03-24T06:59:10.078Z,5.67
2018-03-24T07:01:36.316Z,5.72
2018-03-24T07:04:02.577Z,5.72
2018-03-24T07:06:28.624Z,5.76
2018-03-24T07:08:54.725Z,5.78
2018-03-24T07:11:20.760Z,5.85
2018-03-24T07:13:47.158Z,5.87
2018-03-24T07:16:13.238Z,5.91
2018-03-24T07:18:39.511Z,5.94
2018-03-24T07:21:05.586Z,6.01
2018-03-24T07:23:31.760Z,6.09
2018-03-24T07:25:57.809Z,6.16
2018-03-24T07:28:23.873Z,6.22
2018-03-24T07:30:49.893Z,6.27
2018-03-24T07:33:15.924Z,6.33
2018-03-24T07:35:41.972Z,6.41
2018-03-24T07:38:08.014Z,6.50
2018-03-24T07:40:34.230Z,6.59
2018-03-24T07:43:00.343Z,6.70
2018-03-24T07:45:26.549Z,6.73
2018-03-24T07:47:52.633Z,6.76
2018-03-24T07:50:18.671Z,6.85
2018-03-24T07:52:44.867Z,6.92
2018-03-24T07:55:10.927Z,6.98
2018-03-24T07:57:37.204Z,7.01
2018-03-24T08:00:03.275Z,7.08
2018-03-24T08:02:29.306Z,7.13
2018-03-24T08:04:55.357Z,7.17
2018-03-24T08:07:21.585Z,7.25
2018-03-24T08:09:47.754Z,7.27
2018-03-24T08:12:13.782Z,7.30
2018-03-24T08:14:39.869Z,7.35
2018-03-24T08:17:05.951Z,7.44
2018-03-24T08:19:32.059Z,7.51
2018-03-24T08:21:58.113Z,7.58
2018-03-24T08:24:24.237Z,7.67
2018-03-24T08:26:50.477Z,7.70
2018-03-24T08:29:16.516Z,7.75
2018-03-24T08:31:42.627Z,7.75
2018-03-24T08:34:08.651Z,7.77
2018-03-24T08:36:34.659Z,7.78
2018-03-24T08:39:00.765Z,7.87
2018-03-24T08:41:26.808Z,7.95
2018-03-24T08:43:52.920Z,8.07
2018-03-24T08:46:19.018Z,8.13
2018-03-24T08:48:45.087Z,8.22
2018-03-24T08:51:11.135Z,8.21
2018-03-24T08:53:37.232Z,8.36
2018-03-24T08:56:03.299Z,8.47
2018-03-24T08:58:29.325Z,8.52
2018-03-24T09:00:55.474Z,8.57
2018-03-24T09:03:21.736Z,8.69
2018-03-24T09:05:48.075Z,8.87
2018-03-24T09:08:14.126Z,8.78
2018-03-24T09:10:40.203Z,8.79
2018-03-24T09:13:06.342Z,8.84
2018-03-24T09:15:32.518Z,8.96
2018-03-24T09:17:58.553Z,8.87
2018-03-24T09:20:24.572Z,8.85
2018-03-24T09:22:50.663Z,8.87
2018-03-24T09:25:16.726Z,8.96
2018-03-24T09:27:42.953Z,8.99
2018-03-24T09:30:08.968Z,9.02
2018-03-24T09:32:35.007Z,9.09
2018-03-24T09:35:01.095Z,9.11
2018-03-24T09:37:27.208Z,9.18
2018-03-24T09:39:53.243Z,9.23
2018-03-24T09:42:19.317Z,9.27
2018-03-24T09:44:45.430Z,9.33
2018-03-24T09:47:11.472Z,9.38
2018-03-24T09:49:37.742Z,9.43
2018-03-24T09:52:03.788Z,9.56
2018-03-24T09:54:29.851Z,9.72
2018-03-24T09:56:55.896Z,9.81
2018-03-24T09:59:21.995Z,9.78
2018-03-24T10:01:48.017Z,9.86
2018-03-24T10:04:14.082Z,9.73
2018-03-24T10:06:40.233Z,9.72
2018-03-24T10:09:06.441Z,9.74
2018-03-24T10:11:32.571Z,9.79
2018-03-24T10:13:58.640Z,9.85
2018-03-24T10:16:24.751Z,9.87
2018-03-24T10:18:50.936Z,9.90
2018-03-24T10:24:26.458Z,10.17
2018-03-24T10:26:52.725Z,10.13
2018-03-24T10:29:18.968Z,10.22
2018-03-24T10:31:46.285Z,10.38
2018-03-24T10:34:12.840Z,10.46
2018-03-24T10:36:39.162Z,10.51
2018-03-24T10:39:05.218Z,10.59
2018-03-24T10:41:31.366Z,10.62
2018-03-24T10:43:57.596Z,10.74
2018-03-24T10:46:23.871Z,10.78
2018-03-24T10:48:49.941Z,10.91
2018-03-24T10:51:15.991Z,11.13
2018-03-24T10:53:42.091Z,11.21
2018-03-24T10:56:08.141Z,11.32
2018-03-24T10:58:34.202Z,11.54
2018-03-24T11:01:03.428Z,11.79
2018-03-24T11:03:29.522Z,11.86
2018-03-24T11:05:55.778Z,12.17
2018-03-24T11:08:21.814Z,12.21
2018-03-24T11:10:47.948Z,12.14
2018-03-24T11:13:14.019Z,12.20
2018-03-24T11:15:40.128Z,12.18
2018-03-24T11:18:06.209Z,12.33
2018-03-24T11:20:32.290Z,12.58
2018-03-24T11:22:58.455Z,12.65
2018-03-24T11:25:24.479Z,12.44
2018-03-24T11:27:50.539Z,12.33
2018-03-24T11:30:16.597Z,12.29
2018-03-24T11:32:42.785Z,12.21
2018-03-24T11:35:08.875Z,13.10
2018-03-24T11:37:35.029Z,13.45
2018-03-24T11:40:01.489Z,13.60
2018-03-24T11:42:27.562Z,13.18
2018-03-24T11:44:53.635Z,12.89
2018-03-24T11:47:19.831Z,12.65
2018-03-24T11:49:45.882Z,12.26
2018-03-24T11:52:12.172Z,11.97
2018-03-24T11:54:43.888Z,11.97
2018-03-24T11:57:09.941Z,12.02
2018-03-24T11:59:36.041Z,11.91
2018-03-24T12:02:02.089Z,11.82
2018-03-24T12:04:28.152Z,11.82
2018-03-24T12:06:54.260Z,11.79
2018-03-24T12:09:20.325Z,11.89
2018-03-24T12:11:46.467Z,11.94
2018-03-24T12:14:12.539Z,12.01
2018-03-24T12:16:38.637Z,12.03
2018-03-24T12:19:04.767Z,12.08
2018-03-24T12:21:30.819Z,12.17
2018-03-24T12:23:56.980Z,12.35
2018-03-24T12:26:23.018Z,12.39
2018-03-24T12:28:49.085Z,12.53
2018-03-24T12:31:15.203Z,12.52
2018-03-24T12:33:41.313Z,12.53
2018-03-24T12:36:07.342Z,12.71
2018-03-24T12:38:33.374Z,12.92
2018-03-24T12:40:59.580Z,12.85
2018-03-24T12:43:25.644Z,12.82
2018-03-24T12:45:51.682Z,12.84
2018-03-24T12:48:17.868Z,13.01
2018-03-24T12:50:43.893Z,13.41
2018-03-24T12:53:10.071Z,13.59
2018-03-24T12:55:36.105Z,13.63
2018-03-24T12:58:02.175Z,13.66
2018-03-24T13:00:28.270Z,13.49
2018-03-24T13:02:54.483Z,13.41
2018-03-24T13:05:20.766Z,13.48
2018-03-24T13:07:46.774Z,13.41
2018-03-24T13:10:13.267Z,13.24
2018-03-24T13:12:39.317Z,13.07
2018-03-24T13:15:05.376Z,13.12
2018-03-24T13:17:31.425Z,13.09
2018-03-24T13:19:57.464Z,13.11
2018-03-24T13:22:23.507Z,13.24
2018-03-24T13:24:49.570Z,13.12
2018-03-24T13:27:15.600Z,12.92
2018-03-24T13:29:41.654Z,12.96
2018-03-24T13:32:08.101Z,12.95
2018-03-24T13:34:34.177Z,12.83
2018-03-24T13:37:00.228Z,13.07
2018-03-24T13:39:26.298Z,12.81
2018-03-24T13:41:52.354Z,12.88
2018-03-24T13:44:18.397Z,12.96
2018-03-24T13:46:44.438Z,13.05
2018-03-24T13:49:10.558Z,12.95
2018-03-24T13:51:36.602Z,12.76
2018-03-24T13:54:02.677Z,12.87
2018-03-24T13:56:28.759Z,12.91
2018-03-24T13:58:54.782Z,12.83
2018-03-24T14:01:20.891Z,12.75
2018-03-24T14:03:46.975Z,12.77
2018-03-24T14:06:12.994Z,12.95
2018-03-24T14:08:39.066Z,12.50
2018-03-24T14:11:05.105Z,12.43
2018-03-24T14:13:31.277Z,12.47
2018-03-24T14:15:57.328Z,12.34
2018-03-24T14:18:23.391Z,12.31
2018-03-24T14:20:49.443Z,12.43
2018-03-24T14:23:15.548Z,12.40
2018-03-24T14:25:41.640Z,12.55
2018-03-24T14:28:07.683Z,12.57
2018-03-24T14:30:33.765Z,12.55
2018-03-24T14:32:59.854Z,12.52
2018-03-24T14:35:25.901Z,12.44
2018-03-24T14:37:52.103Z,12.41
2018-03-24T14:40:18.156Z,12.39
2018-03-24T14:42:44.563Z,12.24
2018-03-24T14:45:10.851Z,12.27
2018-03-24T14:47:36.979Z,12.33
2018-03-24T14:50:03.062Z,12.29
2018-03-24T14:52:29.323Z,12.33
2018-03-24T14:54:55.372Z,12.34
2018-03-24T14:57:21.528Z,12.52
2018-03-24T14:59:47.920Z,12.55
2018-03-24T15:02:13.984Z,12.74
2018-03-24T15:04:40.036Z,12.55
2018-03-24T15:07:06.112Z,12.41
2018-03-24T15:09:32.288Z,12.30
2018-03-24T15:11:58.377Z,12.27
2018-03-24T15:14:24.410Z,12.24
2018-03-24T15:16:51.449Z,12.22
2018-03-24T15:19:17.540Z,12.28
2018-03-24T15:21:43.622Z,12.16
2018-03-24T15:24:09.706Z,12.05
2018-03-24T15:26:35.819Z,12.01
2018-03-24T15:29:14.340Z,11.83
2018-03-24T15:31:52.713Z,11.74
2018-03-24T15:34:31.227Z,11.60
2018-03-24T15:36:57.254Z,11.57
2018-03-24T15:39:23.425Z,11.52
2018-03-24T15:41:49.500Z,11.46
2018-03-24T15:44:15.623Z,11.73
2018-03-24T15:46:41.690Z,11.55
2018-03-24T15:49:07.759Z,11.33
2018-03-24T15:51:33.781Z,11.37
2018-03-24T15:53:59.846Z,11.31
2018-03-24T15:56:26.220Z,11.36
2018-03-24T15:58:52.258Z,11.25
2018-03-24T16:01:18.381Z,11.21
2018-03-24T16:03:44.423Z,11.16
2018-03-24T16:06:10.664Z,11.11
2018-03-24T16:08:36.732Z,11.03
2018-03-24T16:11:02.831Z,10.91
2018-03-24T16:13:28.906Z,10.92
2018-03-24T16:15:55.083Z,10.89
2018-03-24T16:18:21.177Z,10.77
2018-03-24T16:20:47.270Z,10.71
2018-03-24T16:23:13.556Z,10.71
2018-03-24T16:25:39.618Z,10.68
2018-03-24T16:28:05.717Z,10.65
2018-03-24T16:30:31.773Z,10.59
2018-03-24T16:33:12.754Z,10.56
2018-03-24T16:35:38.798Z,10.51
2018-03-24T16:38:04.874Z,10.50
2018-03-24T16:40:30.979Z,10.42
2018-03-24T16:42:57.062Z,10.37
2018-03-24T16:45:23.253Z,10.36
2018-03-24T16:47:49.234Z,10.34
2018-03-24T16:50:15.260Z,10.30
2018-03-24T16:52:41.339Z,10.20
2018-03-24T16:55:07.525Z,10.27
2018-03-24T16:57:33.831Z,10.14
2018-03-24T16:59:59.877Z,10.10
2018-03-24T17:02:25.967Z,10.12
2018-03-24T17:04:52.269Z,10.03
2018-03-24T17:07:18.310Z,9.94
2018-03-24T17:09:44.492Z,9.98
2018-03-24T17:12:10.678Z,9.91
2018-03-24T17:14:36.749Z,9.86
2018-03-24T17:17:02.801Z,9.82
2018-03-24T17:19:29.062Z,9.77
2018-03-24T17:21:55.132Z,9.71
2018-03-24T17:24:21.776Z,9.66
2018-03-24T17:26:47.861Z,9.60
2018-03-24T17:29:13.917Z,9.55
2018-03-24T17:31:40.070Z,9.54
2018-03-24T17:34:06.453Z,9.46
2018-03-24T17:36:32.512Z,9.45
2018-03-24T17:38:58.573Z,9.40
2018-03-24T17:41:24.669Z,9.35
2018-03-24T17:43:50.931Z,9.33
2018-03-24T17:46:16.998Z,9.27
2018-03-24T17:48:43.210Z,9.25
2018-03-24T17:51:09.263Z,9.25
2018-03-24T17:53:35.333Z,9.23
2018-03-24T17:56:01.720Z,9.22
2018-03-24T17:58:27.778Z,9.16
2018-03-24T18:00:54.313Z,9.11
2018-03-24T18:03:20.413Z,9.09
2018-03-24T18:05:46.903Z,9.04
2018-03-24T18:08:14.435Z,9.04
2018-03-24T18:10:40.513Z,9.01
2018-03-24T18:13:06.662Z,8.96
2018-03-24T18:15:32.711Z,8.93
2018-03-24T18:17:59.002Z,8.90
2018-03-24T18:20:25.046Z,8.85
2018-03-24T18:22:51.098Z,8.84
2018-03-24T18:25:17.173Z,8.81
2018-03-24T18:27:43.245Z,8.70
2018-03-24T18:30:09.339Z,8.69
2018-03-24T18:32:35.349Z,8.67
2018-03-24T18:35:01.458Z,8.66
2018-03-24T18:37:27.511Z,8.60
2018-03-24T18:39:53.647Z,8.60
2018-03-24T18:42:19.805Z,8.51
2018-03-24T18:44:45.857Z,8.48
2018-03-24T18:47:11.946Z,8.39
2018-03-24T18:49:38.002Z,8.26
2018-03-24T18:52:04.338Z,8.17
2018-03-24T18:54:30.512Z,8.13
2018-03-24T18:56:56.577Z,8.04
2018-03-24T18:59:22.773Z,7.90
2018-03-24T19:01:48.824Z,7.80
2018-03-24T19:04:14.919Z,7.64
2018-03-24T19:06:41.027Z,7.56
2018-03-24T19:09:07.139Z,7.43
2018-03-24T19:11:33.279Z,7.27
2018-03-24T19:13:59.335Z,7.18
2018-03-24T19:16:25.518Z,7.05
2018-03-24T19:18:51.686Z,7.07
2018-03-24T19:21:17.751Z,7.05
2018-03-24T19:23:44.951Z,6.90
2018-03-24T19:26:11.287Z,6.92
2018-03-24T19:28:38.234Z,6.94
2018-03-24T19:31:04.333Z,7.00
2018-03-24T19:33:31.207Z,7.00
2018-03-24T19:35:57.308Z,6.86
2018-03-24T19:38:23.454Z,6.76
2018-03-24T19:40:49.577Z,6.72
2018-03-24T19:43:15.854Z,6.67
2018-03-24T19:45:41.914Z,6.70
2018-03-24T19:48:07.993Z,6.87
2018-03-24T19:50:34.095Z,6.96
2018-03-24T19:53:00.200Z,6.96
2018-03-24T19:55:26.546Z,6.93
2018-03-24T19:57:52.749Z,6.95
2018-03-24T20:00:18.920Z,6.94
2018-03-24T20:02:45.958Z,6.89
2018-03-24T20:05:12.124Z,6.93
2018-03-24T20:07:38.290Z,6.86
2018-03-24T20:10:04.429Z,6.88
2018-03-24T20:12:30.483Z,6.87
2018-03-24T20:14:56.609Z,6.82
2018-03-24T20:17:22.643Z,6.77
2018-03-24T20:19:48.703Z,6.75
2018-03-24T20:22:14.801Z,6.74
2018-03-24T20:24:55.775Z,6.68
2018-03-24T20:27:21.943Z,6.63
2018-03-24T20:29:47.997Z,6.60
2018-03-24T20:32:14.060Z,6.58
2018-03-24T20:34:40.171Z,6.49
2018-03-24T20:37:06.199Z,6.43
2018-03-24T20:39:32.645Z,6.38
2018-03-24T20:41:58.752Z,6.44
2018-03-24T20:44:24.783Z,6.38
2018-03-24T20:46:50.953Z,6.36
2018-03-24T20:49:17.029Z,6.35
2018-03-24T20:51:43.157Z,6.32
2018-03-24T20:54:09.328Z,6.29
2018-03-24T20:56:35.388Z,6.19
2018-03-24T20:59:01.430Z,6.21
2018-03-24T21:01:27.546Z,6.18
2018-03-24T21:03:53.550Z,6.15
2018-03-24T21:06:19.650Z,6.16
2018-03-24T21:08:45.726Z,6.04
2018-03-24T21:11:12.072Z,5.97
2018-03-24T21:13:38.299Z,5.98
2018-03-24T21:16:04.483Z,5.97
2018-03-24T21:18:30.622Z,5.97
2018-03-24T21:20:56.847Z,5.89
2018-03-24T21:23:22.945Z,5.86
2018-03-24T21:25:49.266Z,5.81
2018-03-24T21:28:15.356Z,5.71
2018-03-24T21:30:41.429Z,5.66
2018-03-24T21:33:07.553Z,5.59
2018-03-24T21:42:18.124Z,5.26
2018-03-24T21:44:44.211Z,5.11
2018-03-24T21:47:10.272Z,5.03
2018-03-24T21:49:36.567Z,4.96
2018-03-24T21:52:02.736Z,4.90
2018-03-24T21:54:29.071Z,4.87
2018-03-24T21:56:55.178Z,4.78
2018-03-24T21:59:21.253Z,4.65
2018-03-24T22:01:47.414Z,4.60
2018-03-24T22:04:13.744Z,4.51
2018-03-24T22:06:39.939Z,4.41
2018-03-24T22:09:06.050Z,4.28
2018-03-24T22:11:32.387Z,4.21
2018-03-24T22:13:58.566Z,4.10
2018-03-24T22:16:24.679Z,4.02
2018-03-24T22:18:50.768Z,3.94
2018-03-24T22:21:16.872Z,3.83
2018-03-24T22:23:42.958Z,3.77
2018-03-24T22:26:09.109Z,3.69
2018-03-24T22:28:35.179Z,3.65
2018-03-24T22:31:01.249Z,3.63
2018-03-24T22:33:27.282Z,3.57
2018-03-24T22:35:53.350Z,3.57
2018-03-24T22:38:19.415Z,3.52
2018-03-24T22:40:45.463Z,3.53
2018-03-24T22:43:11.568Z,3.49
2018-03-24T22:45:37.851Z,3.43
2018-03-24T22:48:03.905Z,3.41
2018-03-24T22:50:30.005Z,3.35
2018-03-24T22:52:56.038Z,3.29
2018-03-24T22:55:22.133Z,3.26
2018-03-24T22:57:48.214Z,3.26
2018-03-24T23:00:14.284Z,3.21
2018-03-24T23:02:40.380Z,3.17
2018-03-24T23:05:06.611Z,3.15
2018-03-24T23:07:32.652Z,3.10
2018-03-24T23:09:58.907Z,3.05
2018-03-24T23:12:25.082Z,3.08
2018-03-24T23:14:51.141Z,3.07
2018-03-24T23:17:17.211Z,2.97
2018-03-24T23:19:43.379Z,2.89
2018-03-24T23:22:09.462Z,2.90
2018-03-24T23:24:35.573Z,2.80
2018-03-24T23:27:01.658Z,2.83
2018-03-24T23:29:27.699Z,2.85
2018-03-24T23:31:53.743Z,2.86
2018-03-24T23:34:19.847Z,2.88
2018-03-24T23:36:45.915Z,2.80
2018-03-24T23:39:12.043Z,2.77
2018-03-24T23:41:38.061Z,2.71
2018-03-24T23:44:04.235Z,2.67
2018-03-24T23:46:30.295Z,2.62
2018-03-24T23:48:57.462Z,2.64
2018-03-24T23:51:23.509Z,2.63
2018-03-24T23:53:49.575Z,2.60
2018-03-24T23:56:15.619Z,2.57
2018-03-24T23:58:41.655Z,2.55
